sensor_id;sensor_type;location;lat;lon;timestamp;P1;durP1;ratioP1;P2;durP2;ratioP2
8857;SDS011;4465;50.904;4.696;2023-07-31T00:02:14;13.05;;;3.17;;
8857;SDS011;4465;50.904;4.696;2023-07-31T00:04:40;7.78;;;3.17;;
8857;SDS011;4465;50.904;4.696;2023-07-31T00:07:06;11.63;;;3.35;;
8857;SDS011;4465;50.904;4.696;2023-07-31T00:09:32;10.07;;;3.30;;
8857;SDS011;4465;50.904;4.696;2023-07-31T00:11:59;14.27;;;3.60;;
8857;SDS011;4465;50.904;4.696;2023-07-31T00:14:27;16.65;;;3.45;;
8857;SDS011;4465;50.904;4.696;2023-07-31T00:16:53;10.43;;;3.60;;
8857;SDS011;4465;50.904;4.696;2023-07-31T00:19:21;13.15;;;3.47;;
8857;SDS011;4465;50.904;4.696;2023-07-31T00:21:50;12.48;;;3.70;;
8857;SDS011;4465;50.904;4.696;2023-07-31T00:24:15;11.43;;;3.20;;
8857;SDS011;4465;50.904;4.696;2023-07-31T00:26:44;18.20;;;3.85;;
8857;SDS011;4465;50.904;4.696;2023-07-31T00:29:10;16.73;;;3.75;;
8857;SDS011;4465;50.904;4.696;2023-07-31T00:31:38;15.90;;;3.95;;
8857;SDS011;4465;50.904;4.696;2023-07-31T00:34:04;11.10;;;3.40;;
8857;SDS011;4465;50.904;4.696;2023-07-31T00:36:30;9.68;;;3.53;;
8857;SDS011;4465;50.904;4.696;2023-07-31T00:38:56;16.05;;;3.50;;
8857;SDS011;4465;50.904;4.696;2023-07-31T00:41:22;10.45;;;3.63;;
8857;SDS011;4465;50.904;4.696;2023-07-31T00:43:48;11.68;;;3.50;;
8857;SDS011;4465;50.904;4.696;2023-07-31T00:46:16;14.68;;;3.75;;
8857;SDS011;4465;50.904;4.696;2023-07-31T00:48:45;10.55;;;3.42;;
8857;SDS011;4465;50.904;4.696;2023-07-31T00:51:13;13.52;;;3.58;;
8857;SDS011;4465;50.904;4.696;2023-07-31T00:53:40;12.05;;;3.90;;
8857;SDS011;4465;50.904;4.696;2023-07-31T00:56:06;17.48;;;4.07;;
8857;SDS011;4465;50.904;4.696;2023-07-31T00:58:35;14.05;;;3.90;;
8857;SDS011;4465;50.904;4.696;2023-07-31T01:01:01;17.13;;;4.18;;
8857;SDS011;4465;50.904;4.696;2023-07-31T01:03:30;13.77;;;3.63;;
8857;SDS011;4465;50.904;4.696;2023-07-31T01:11:28;11.30;;;3.97;;
8857;SDS011;4465;50.904;4.696;2023-07-31T01:14:04;11.77;;;3.70;;
8857;SDS011;4465;50.904;4.696;2023-07-31T01:16:31;13.30;;;3.58;;
8857;SDS011;4465;50.904;4.696;2023-07-31T01:18:59;6.50;;;3.20;;
8857;SDS011;4465;50.904;4.696;2023-07-31T01:24:29;11.55;;;3.50;;
8857;SDS011;4465;50.904;4.696;2023-07-31T01:27:06;13.00;;;3.53;;
8857;SDS011;4465;50.904;4.696;2023-07-31T01:29:38;12.48;;;3.72;;
8857;SDS011;4465;50.904;4.696;2023-07-31T01:32:10;8.50;;;3.22;;
8857;SDS011;4465;50.904;4.696;2023-07-31T01:34:39;11.40;;;3.60;;
8857;SDS011;4465;50.904;4.696;2023-07-31T01:37:07;12.48;;;3.50;;
8857;SDS011;4465;50.904;4.696;2023-07-31T01:39:33;14.93;;;3.53;;
8857;SDS011;4465;50.904;4.696;2023-07-31T01:41:59;14.10;;;3.90;;
8857;SDS011;4465;50.904;4.696;2023-07-31T01:44:28;11.82;;;3.67;;
8857;SDS011;4465;50.904;4.696;2023-07-31T01:46:56;10.02;;;3.75;;
8857;SDS011;4465;50.904;4.696;2023-07-31T01:49:21;12.48;;;3.78;;
8857;SDS011;4465;50.904;4.696;2023-07-31T01:51:47;11.82;;;3.58;;
8857;SDS011;4465;50.904;4.696;2023-07-31T01:54:13;9.77;;;3.58;;
8857;SDS011;4465;50.904;4.696;2023-07-31T01:56:39;9.38;;;3.10;;
8857;SDS011;4465;50.904;4.696;2023-07-31T01:59:05;16.88;;;4.05;;
8857;SDS011;4465;50.904;4.696;2023-07-31T02:01:31;12.30;;;3.47;;
8857;SDS011;4465;50.904;4.696;2023-07-31T02:03:59;10.68;;;3.75;;
8857;SDS011;4465;50.904;4.696;2023-07-31T02:06:28;8.40;;;3.72;;
8857;SDS011;4465;50.904;4.696;2023-07-31T02:08:54;8.60;;;3.88;;
8857;SDS011;4465;50.904;4.696;2023-07-31T02:11:20;14.55;;;4.30;;
8857;SDS011;4465;50.904;4.696;2023-07-31T02:13:46;9.90;;;3.80;;
8857;SDS011;4465;50.904;4.696;2023-07-31T02:16:16;9.60;;;3.53;;
8857;SDS011;4465;50.904;4.696;2023-07-31T02:18:42;14.00;;;3.72;;
8857;SDS011;4465;50.904;4.696;2023-07-31T02:21:10;14.18;;;3.90;;
8857;SDS011;4465;50.904;4.696;2023-07-31T02:23:38;10.63;;;4.00;;
8857;SDS011;4465;50.904;4.696;2023-07-31T02:26:06;13.20;;;4.00;;
8857;SDS011;4465;50.904;4.696;2023-07-31T02:28:32;12.60;;;4.03;;
8857;SDS011;4465;50.904;4.696;2023-07-31T02:30:58;12.63;;;3.60;;
8857;SDS011;4465;50.904;4.696;2023-07-31T02:33:24;10.25;;;3.92;;
8857;SDS011;4465;50.904;4.696;2023-07-31T02:35:50;11.50;;;3.85;;
8857;SDS011;4465;50.904;4.696;2023-07-31T02:38:16;11.85;;;4.15;;
8857;SDS011;4465;50.904;4.696;2023-07-31T02:40:42;12.02;;;3.97;;
8857;SDS011;4465;50.904;4.696;2023-07-31T02:43:13;14.38;;;4.25;;
8857;SDS011;4465;50.904;4.696;2023-07-31T02:45:39;11.00;;;4.40;;
8857;SDS011;4465;50.904;4.696;2023-07-31T02:48:05;9.50;;;3.95;;
8857;SDS011;4465;50.904;4.696;2023-07-31T02:50:31;11.80;;;3.97;;
8857;SDS011;4465;50.904;4.696;2023-07-31T02:52:57;8.45;;;4.22;;
8857;SDS011;4465;50.904;4.696;2023-07-31T02:55:25;12.23;;;4.30;;
8857;SDS011;4465;50.904;4.696;2023-07-31T02:57:53;10.23;;;4.07;;
8857;SDS011;4465;50.904;4.696;2023-07-31T03:00:25;13.82;;;4.20;;
8857;SDS011;4465;50.904;4.696;2023-07-31T03:02:51;9.23;;;3.72;;
8857;SDS011;4465;50.904;4.696;2023-07-31T03:05:17;9.88;;;3.83;;
8857;SDS011;4465;50.904;4.696;2023-07-31T03:07:43;9.40;;;3.58;;
8857;SDS011;4465;50.904;4.696;2023-07-31T03:10:09;10.73;;;3.55;;
8857;SDS011;4465;50.904;4.696;2023-07-31T03:12:38;9.35;;;4.03;;
8857;SDS011;4465;50.904;4.696;2023-07-31T03:15:04;7.57;;;3.58;;
8857;SDS011;4465;50.904;4.696;2023-07-31T03:17:30;9.40;;;4.47;;
8857;SDS011;4465;50.904;4.696;2023-07-31T03:19:56;11.18;;;3.58;;
8857;SDS011;4465;50.904;4.696;2023-07-31T03:22:21;7.28;;;3.40;;
8857;SDS011;4465;50.904;4.696;2023-07-31T03:24:47;9.50;;;3.50;;
8857;SDS011;4465;50.904;4.696;2023-07-31T03:27:13;8.77;;;4.00;;
8857;SDS011;4465;50.904;4.696;2023-07-31T03:29:39;8.68;;;3.03;;
8857;SDS011;4465;50.904;4.696;2023-07-31T03:32:07;7.95;;;3.60;;
8857;SDS011;4465;50.904;4.696;2023-07-31T03:34:33;9.60;;;4.57;;
8857;SDS011;4465;50.904;4.696;2023-07-31T03:37:01;9.13;;;3.72;;
8857;SDS011;4465;50.904;4.696;2023-07-31T03:39:27;10.07;;;3.55;;
8857;SDS011;4465;50.904;4.696;2023-07-31T03:41:53;9.57;;;3.50;;
8857;SDS011;4465;50.904;4.696;2023-07-31T03:44:22;6.70;;;2.95;;
8857;SDS011;4465;50.904;4.696;2023-07-31T03:46:47;10.88;;;3.58;;
8857;SDS011;4465;50.904;4.696;2023-07-31T03:49:13;11.32;;;3.33;;
8857;SDS011;4465;50.904;4.696;2023-07-31T03:51:39;6.07;;;3.20;;
8857;SDS011;4465;50.904;4.696;2023-07-31T03:54:06;13.82;;;3.78;;
8857;SDS011;4465;50.904;4.696;2023-07-31T03:56:33;6.72;;;3.13;;
8857;SDS011;4465;50.904;4.696;2023-07-31T03:59:05;8.38;;;3.85;;
8857;SDS011;4465;50.904;4.696;2023-07-31T04:01:31;8.35;;;3.97;;
8857;SDS011;4465;50.904;4.696;2023-07-31T04:03:59;8.40;;;3.72;;
8857;SDS011;4465;50.904;4.696;2023-07-31T04:06:28;9.73;;;3.88;;
8857;SDS011;4465;50.904;4.696;2023-07-31T04:08:54;9.82;;;3.72;;
8857;SDS011;4465;50.904;4.696;2023-07-31T04:11:20;8.73;;;3.80;;
8857;SDS011;4465;50.904;4.696;2023-07-31T04:13:48;8.70;;;3.72;;
8857;SDS011;4465;50.904;4.696;2023-07-31T04:16:14;8.98;;;3.63;;
8857;SDS011;4465;50.904;4.696;2023-07-31T04:18:40;11.75;;;3.42;;
8857;SDS011;4465;50.904;4.696;2023-07-31T04:21:08;9.93;;;4.50;;
8857;SDS011;4465;50.904;4.696;2023-07-31T04:23:35;10.80;;;3.90;;
8857;SDS011;4465;50.904;4.696;2023-07-31T04:26:01;7.47;;;3.67;;
8857;SDS011;4465;50.904;4.696;2023-07-31T04:28:29;7.82;;;3.63;;
8857;SDS011;4465;50.904;4.696;2023-07-31T04:30:59;10.15;;;3.90;;
8857;SDS011;4465;50.904;4.696;2023-07-31T04:33:25;9.93;;;3.75;;
8857;SDS011;4465;50.904;4.696;2023-07-31T04:35:51;8.85;;;3.42;;
8857;SDS011;4465;50.904;4.696;2023-07-31T04:38:18;17.00;;;3.67;;
8857;SDS011;4465;50.904;4.696;2023-07-31T04:40:45;8.10;;;3.67;;
8857;SDS011;4465;50.904;4.696;2023-07-31T04:43:14;12.70;;;4.30;;
8857;SDS011;4465;50.904;4.696;2023-07-31T04:45:44;7.07;;;3.60;;
8857;SDS011;4465;50.904;4.696;2023-07-31T04:48:12;8.75;;;3.67;;
8857;SDS011;4465;50.904;4.696;2023-07-31T04:50:38;10.18;;;3.83;;
8857;SDS011;4465;50.904;4.696;2023-07-31T04:53:04;11.98;;;3.88;;
8857;SDS011;4465;50.904;4.696;2023-07-31T04:55:30;5.60;;;3.00;;
8857;SDS011;4465;50.904;4.696;2023-07-31T04:57:57;10.55;;;3.80;;
8857;SDS011;4465;50.904;4.696;2023-07-31T05:00:24;11.52;;;3.80;;
8857;SDS011;4465;50.904;4.696;2023-07-31T05:02:50;13.95;;;4.18;;
8857;SDS011;4465;50.904;4.696;2023-07-31T05:05:18;7.18;;;3.50;;
8857;SDS011;4465;50.904;4.696;2023-07-31T05:07:44;10.60;;;3.88;;
8857;SDS011;4465;50.904;4.696;2023-07-31T05:10:10;6.85;;;3.83;;
8857;SDS011;4465;50.904;4.696;2023-07-31T05:12:35;7.07;;;3.10;;
8857;SDS011;4465;50.904;4.696;2023-07-31T05:15:04;6.40;;;3.15;;
8857;SDS011;4465;50.904;4.696;2023-07-31T05:17:30;11.60;;;3.45;;
8857;SDS011;4465;50.904;4.696;2023-07-31T05:19:59;11.38;;;3.20;;
8857;SDS011;4465;50.904;4.696;2023-07-31T05:22:24;12.90;;;3.50;;
8857;SDS011;4465;50.904;4.696;2023-07-31T05:24:57;9.43;;;3.38;;
8857;SDS011;4465;50.904;4.696;2023-07-31T05:27:23;9.95;;;3.75;;
8857;SDS011;4465;50.904;4.696;2023-07-31T05:29:49;11.63;;;3.53;;
8857;SDS011;4465;50.904;4.696;2023-07-31T05:32:15;5.65;;;2.92;;
8857;SDS011;4465;50.904;4.696;2023-07-31T05:34:43;6.07;;;3.10;;
8857;SDS011;4465;50.904;4.696;2023-07-31T05:37:11;18.50;;;3.95;;
8857;SDS011;4465;50.904;4.696;2023-07-31T05:39:40;11.00;;;3.10;;
8857;SDS011;4465;50.904;4.696;2023-07-31T05:42:06;10.00;;;3.25;;
8857;SDS011;4465;50.904;4.696;2023-07-31T05:44:32;9.65;;;3.42;;
8857;SDS011;4465;50.904;4.696;2023-07-31T05:46:57;10.50;;;5.85;;
8857;SDS011;4465;50.904;4.696;2023-07-31T05:49:23;8.73;;;3.35;;
8857;SDS011;4465;50.904;4.696;2023-07-31T05:51:49;7.85;;;3.17;;
8857;SDS011;4465;50.904;4.696;2023-07-31T05:54:18;7.95;;;3.53;;
8857;SDS011;4465;50.904;4.696;2023-07-31T05:56:47;7.45;;;3.17;;
8857;SDS011;4465;50.904;4.696;2023-07-31T05:59:13;11.80;;;3.15;;
8857;SDS011;4465;50.904;4.696;2023-07-31T06:01:41;10.52;;;2.92;;
8857;SDS011;4465;50.904;4.696;2023-07-31T06:04:07;8.38;;;3.03;;
8857;SDS011;4465;50.904;4.696;2023-07-31T06:06:36;8.75;;;3.75;;
8857;SDS011;4465;50.904;4.696;2023-07-31T06:09:02;8.88;;;3.50;;
8857;SDS011;4465;50.904;4.696;2023-07-31T06:11:30;6.22;;;3.10;;
8857;SDS011;4465;50.904;4.696;2023-07-31T06:13:59;6.68;;;2.97;;
8857;SDS011;4465;50.904;4.696;2023-07-31T06:16:25;6.30;;;2.92;;
8857;SDS011;4465;50.904;4.696;2023-07-31T06:18:52;12.63;;;3.40;;
8857;SDS011;4465;50.904;4.696;2023-07-31T06:21:18;9.13;;;3.20;;
8857;SDS011;4465;50.904;4.696;2023-07-31T06:23:44;8.90;;;3.28;;
8857;SDS011;4465;50.904;4.696;2023-07-31T06:26:10;8.23;;;4.03;;
8857;SDS011;4465;50.904;4.696;2023-07-31T06:28:36;7.28;;;3.60;;
8857;SDS011;4465;50.904;4.696;2023-07-31T06:31:04;9.43;;;3.38;;
8857;SDS011;4465;50.904;4.696;2023-07-31T06:33:30;9.07;;;3.13;;
8857;SDS011;4465;50.904;4.696;2023-07-31T06:35:58;8.93;;;3.92;;
8857;SDS011;4465;50.904;4.696;2023-07-31T06:38:27;9.40;;;3.50;;
8857;SDS011;4465;50.904;4.696;2023-07-31T06:40:55;10.20;;;3.30;;
8857;SDS011;4465;50.904;4.696;2023-07-31T06:43:23;6.82;;;3.15;;
8857;SDS011;4465;50.904;4.696;2023-07-31T06:45:49;6.70;;;3.22;;
8857;SDS011;4465;50.904;4.696;2023-07-31T06:48:16;8.00;;;3.33;;
8857;SDS011;4465;50.904;4.696;2023-07-31T06:50:44;6.60;;;3.50;;
8857;SDS011;4465;50.904;4.696;2023-07-31T06:53:10;7.65;;;3.42;;
8857;SDS011;4465;50.904;4.696;2023-07-31T06:55:39;10.13;;;3.67;;
8857;SDS011;4465;50.904;4.696;2023-07-31T06:58:05;8.80;;;3.35;;
8857;SDS011;4465;50.904;4.696;2023-07-31T07:00:31;9.63;;;3.65;;
8857;SDS011;4465;50.904;4.696;2023-07-31T07:02:57;5.82;;;2.72;;
8857;SDS011;4465;50.904;4.696;2023-07-31T07:05:27;10.68;;;3.40;;
8857;SDS011;4465;50.904;4.696;2023-07-31T07:07:56;11.10;;;3.47;;
8857;SDS011;4465;50.904;4.696;2023-07-31T07:10:24;10.30;;;3.90;;
8857;SDS011;4465;50.904;4.696;2023-07-31T07:12:50;9.13;;;3.63;;
8857;SDS011;4465;50.904;4.696;2023-07-31T07:15:16;8.38;;;3.63;;
8857;SDS011;4465;50.904;4.696;2023-07-31T07:17:42;10.15;;;3.80;;
8857;SDS011;4465;50.904;4.696;2023-07-31T07:20:08;6.50;;;3.20;;
8857;SDS011;4465;50.904;4.696;2023-07-31T07:22:39;7.22;;;3.53;;
8857;SDS011;4465;50.904;4.696;2023-07-31T07:25:08;8.45;;;3.30;;
8857;SDS011;4465;50.904;4.696;2023-07-31T07:27:36;8.85;;;3.30;;
8857;SDS011;4465;50.904;4.696;2023-07-31T07:30:02;10.55;;;3.67;;
8857;SDS011;4465;50.904;4.696;2023-07-31T07:32:29;8.38;;;3.30;;
8857;SDS011;4465;50.904;4.696;2023-07-31T07:34:57;10.70;;;3.40;;
8857;SDS011;4465;50.904;4.696;2023-07-31T07:37:26;11.20;;;3.28;;
8857;SDS011;4465;50.904;4.696;2023-07-31T07:39:54;10.20;;;3.38;;
8857;SDS011;4465;50.904;4.696;2023-07-31T07:42:23;8.32;;;3.60;;
8857;SDS011;4465;50.904;4.696;2023-07-31T07:44:48;8.32;;;3.03;;
8857;SDS011;4465;50.904;4.696;2023-07-31T07:47:14;10.57;;;3.40;;
8857;SDS011;4465;50.904;4.696;2023-07-31T07:49:40;8.02;;;2.83;;
8857;SDS011;4465;50.904;4.696;2023-07-31T07:52:06;8.98;;;2.95;;
8857;SDS011;4465;50.904;4.696;2023-07-31T07:54:35;10.27;;;3.20;;
8857;SDS011;4465;50.904;4.696;2023-07-31T07:57:00;8.60;;;3.15;;
8857;SDS011;4465;50.904;4.696;2023-07-31T07:59:26;6.10;;;2.80;;
8857;SDS011;4465;50.904;4.696;2023-07-31T08:01:52;7.30;;;2.67;;
8857;SDS011;4465;50.904;4.696;2023-07-31T08:04:20;6.35;;;3.00;;
8857;SDS011;4465;50.904;4.696;2023-07-31T08:06:46;8.95;;;3.10;;
8857;SDS011;4465;50.904;4.696;2023-07-31T08:09:12;5.88;;;2.72;;
8857;SDS011;4465;50.904;4.696;2023-07-31T08:11:38;4.70;;;2.50;;
8857;SDS011;4465;50.904;4.696;2023-07-31T08:14:04;9.48;;;3.10;;
8857;SDS011;4465;50.904;4.696;2023-07-31T08:16:30;5.63;;;2.40;;
8857;SDS011;4465;50.904;4.696;2023-07-31T08:18:58;9.85;;;2.85;;
8857;SDS011;4465;50.904;4.696;2023-07-31T08:21:24;5.25;;;2.50;;
8857;SDS011;4465;50.904;4.696;2023-07-31T08:23:49;11.73;;;3.10;;
8857;SDS011;4465;50.904;4.696;2023-07-31T08:26:16;7.07;;;2.70;;
8857;SDS011;4465;50.904;4.696;2023-07-31T08:28:42;5.47;;;2.40;;
8857;SDS011;4465;50.904;4.696;2023-07-31T08:31:08;5.13;;;2.20;;
8857;SDS011;4465;50.904;4.696;2023-07-31T08:33:34;7.20;;;2.58;;
8857;SDS011;4465;50.904;4.696;2023-07-31T08:36:00;4.30;;;2.40;;
8857;SDS011;4465;50.904;4.696;2023-07-31T08:38:29;7.45;;;2.50;;
8857;SDS011;4465;50.904;4.696;2023-07-31T08:40:56;5.60;;;2.47;;
8857;SDS011;4465;50.904;4.696;2023-07-31T08:43:25;7.68;;;2.65;;
8857;SDS011;4465;50.904;4.696;2023-07-31T08:45:55;6.80;;;2.33;;
8857;SDS011;4465;50.904;4.696;2023-07-31T08:48:23;4.78;;;2.10;;
8857;SDS011;4465;50.904;4.696;2023-07-31T08:50:51;8.02;;;2.45;;
8857;SDS011;4465;50.904;4.696;2023-07-31T08:53:18;8.43;;;2.83;;
8857;SDS011;4465;50.904;4.696;2023-07-31T08:55:44;8.65;;;2.78;;
8857;SDS011;4465;50.904;4.696;2023-07-31T08:58:12;8.00;;;2.40;;
8857;SDS011;4465;50.904;4.696;2023-07-31T09:00:41;5.05;;;2.65;;
8857;SDS011;4465;50.904;4.696;2023-07-31T09:03:11;5.40;;;2.08;;
8857;SDS011;4465;50.904;4.696;2023-07-31T09:05:41;5.28;;;2.15;;
8857;SDS011;4465;50.904;4.696;2023-07-31T09:08:12;5.25;;;2.40;;
8857;SDS011;4465;50.904;4.696;2023-07-31T09:10:43;5.30;;;2.13;;
8857;SDS011;4465;50.904;4.696;2023-07-31T09:13:13;5.43;;;2.30;;
8857;SDS011;4465;50.904;4.696;2023-07-31T09:15:40;6.63;;;2.28;;
8857;SDS011;4465;50.904;4.696;2023-07-31T09:18:08;6.75;;;2.45;;
8857;SDS011;4465;50.904;4.696;2023-07-31T09:20:35;6.68;;;2.17;;
8857;SDS011;4465;50.904;4.696;2023-07-31T09:23:08;8.85;;;2.90;;
8857;SDS011;4465;50.904;4.696;2023-07-31T09:25:36;5.40;;;2.42;;
8857;SDS011;4465;50.904;4.696;2023-07-31T09:28:04;7.00;;;2.78;;
8857;SDS011;4465;50.904;4.696;2023-07-31T09:30:42;8.10;;;2.80;;
8857;SDS011;4465;50.904;4.696;2023-07-31T09:33:14;5.43;;;2.70;;
8857;SDS011;4465;50.904;4.696;2023-07-31T09:35:43;7.70;;;2.50;;
8857;SDS011;4465;50.904;4.696;2023-07-31T09:38:13;5.85;;;2.60;;
8857;SDS011;4465;50.904;4.696;2023-07-31T09:40:40;4.38;;;2.50;;
8857;SDS011;4465;50.904;4.696;2023-07-31T09:43:20;5.35;;;2.80;;
8857;SDS011;4465;50.904;4.696;2023-07-31T09:45:47;5.30;;;2.58;;
8857;SDS011;4465;50.904;4.696;2023-07-31T09:48:17;8.35;;;2.80;;
8857;SDS011;4465;50.904;4.696;2023-07-31T09:50:48;6.82;;;2.70;;
8857;SDS011;4465;50.904;4.696;2023-07-31T09:53:15;4.82;;;2.80;;
8857;SDS011;4465;50.904;4.696;2023-07-31T09:55:42;10.25;;;2.90;;
8857;SDS011;4465;50.904;4.696;2023-07-31T09:58:09;6.90;;;2.83;;
8857;SDS011;4465;50.904;4.696;2023-07-31T10:00:36;4.95;;;2.78;;
8857;SDS011;4465;50.904;4.696;2023-07-31T10:03:10;6.13;;;2.45;;
8857;SDS011;4465;50.904;4.696;2023-07-31T10:05:38;6.68;;;3.10;;
8857;SDS011;4465;50.904;4.696;2023-07-31T10:08:07;7.03;;;3.00;;
8857;SDS011;4465;50.904;4.696;2023-07-31T10:10:36;5.78;;;2.53;;
8857;SDS011;4465;50.904;4.696;2023-07-31T10:13:12;8.30;;;2.97;;
8857;SDS011;4465;50.904;4.696;2023-07-31T10:15:39;8.57;;;2.88;;
8857;SDS011;4465;50.904;4.696;2023-07-31T10:18:08;9.98;;;2.95;;
8857;SDS011;4465;50.904;4.696;2023-07-31T10:20:35;5.55;;;2.58;;
8857;SDS011;4465;50.904;4.696;2023-07-31T10:23:02;6.10;;;2.87;;
8857;SDS011;4465;50.904;4.696;2023-07-31T10:25:30;5.53;;;2.80;;
8857;SDS011;4465;50.904;4.696;2023-07-31T10:28:00;10.20;;;3.78;;
8857;SDS011;4465;50.904;4.696;2023-07-31T10:30:32;6.35;;;3.42;;
8857;SDS011;4465;50.904;4.696;2023-07-31T10:33:03;7.18;;;3.42;;
8857;SDS011;4465;50.904;4.696;2023-07-31T10:35:33;8.50;;;3.50;;
8857;SDS011;4465;50.904;4.696;2023-07-31T10:38:11;8.07;;;3.47;;
8857;SDS011;4465;50.904;4.696;2023-07-31T10:40:38;16.55;;;4.10;;
8857;SDS011;4465;50.904;4.696;2023-07-31T10:43:04;10.02;;;3.28;;
8857;SDS011;4465;50.904;4.696;2023-07-31T10:45:38;7.27;;;3.13;;
8857;SDS011;4465;50.904;4.696;2023-07-31T10:48:12;9.27;;;3.05;;
8857;SDS011;4465;50.904;4.696;2023-07-31T10:50:46;9.30;;;3.40;;
8857;SDS011;4465;50.904;4.696;2023-07-31T10:53:24;8.73;;;3.70;;
8857;SDS011;4465;50.904;4.696;2023-07-31T10:55:57;7.63;;;3.38;;
8857;SDS011;4465;50.904;4.696;2023-07-31T10:58:27;8.57;;;3.28;;
8857;SDS011;4465;50.904;4.696;2023-07-31T11:00:57;5.78;;;3.15;;
8857;SDS011;4465;50.904;4.696;2023-07-31T11:03:25;7.47;;;3.00;;
8857;SDS011;4465;50.904;4.696;2023-07-31T11:08:29;10.50;;;3.58;;
8857;SDS011;4465;50.904;4.696;2023-07-31T11:15:55;8.38;;;3.10;;
8857;SDS011;4465;50.904;4.696;2023-07-31T11:18:22;7.53;;;3.35;;
8857;SDS011;4465;50.904;4.696;2023-07-31T11:20:48;10.13;;;3.42;;
8857;SDS011;4465;50.904;4.696;2023-07-31T11:23:15;13.95;;;3.47;;
8857;SDS011;4465;50.904;4.696;2023-07-31T11:25:42;11.13;;;3.63;;
8857;SDS011;4465;50.904;4.696;2023-07-31T11:28:14;9.13;;;3.50;;
8857;SDS011;4465;50.904;4.696;2023-07-31T11:30:46;10.10;;;4.00;;
8857;SDS011;4465;50.904;4.696;2023-07-31T11:33:12;11.35;;;3.92;;
8857;SDS011;4465;50.904;4.696;2023-07-31T11:35:43;7.97;;;3.28;;
8857;SDS011;4465;50.904;4.696;2023-07-31T11:38:24;8.88;;;3.30;;
8857;SDS011;4465;50.904;4.696;2023-07-31T11:40:57;8.10;;;3.05;;
8857;SDS011;4465;50.904;4.696;2023-07-31T11:43:25;9.52;;;3.83;;
8857;SDS011;4465;50.904;4.696;2023-07-31T11:45:56;12.00;;;4.03;;
8857;SDS011;4465;50.904;4.696;2023-07-31T11:48:27;7.60;;;3.33;;
8857;SDS011;4465;50.904;4.696;2023-07-31T11:50:58;6.72;;;3.05;;
8857;SDS011;4465;50.904;4.696;2023-07-31T11:56:13;9.85;;;3.17;;
8857;SDS011;4465;50.904;4.696;2023-07-31T11:58:42;8.75;;;3.13;;
8857;SDS011;4465;50.904;4.696;2023-07-31T12:01:10;6.88;;;3.60;;
8857;SDS011;4465;50.904;4.696;2023-07-31T12:03:37;8.88;;;3.40;;
8857;SDS011;4465;50.904;4.696;2023-07-31T12:06:04;8.48;;;3.40;;
8857;SDS011;4465;50.904;4.696;2023-07-31T12:08:36;10.95;;;3.70;;
8857;SDS011;4465;50.904;4.696;2023-07-31T12:11:03;5.93;;;2.95;;
8857;SDS011;4465;50.904;4.696;2023-07-31T12:13:30;7.70;;;3.47;;
8857;SDS011;4465;50.904;4.696;2023-07-31T12:15:58;8.77;;;3.63;;
8857;SDS011;4465;50.904;4.696;2023-07-31T12:18:26;10.10;;;4.07;;
8857;SDS011;4465;50.904;4.696;2023-07-31T12:20:54;11.98;;;3.90;;
8857;SDS011;4465;50.904;4.696;2023-07-31T12:23:22;6.55;;;3.30;;
8857;SDS011;4465;50.904;4.696;2023-07-31T12:26:00;7.25;;;3.30;;
8857;SDS011;4465;50.904;4.696;2023-07-31T12:28:43;11.18;;;3.35;;
8857;SDS011;4465;50.904;4.696;2023-07-31T12:31:11;6.85;;;2.83;;
8857;SDS011;4465;50.904;4.696;2023-07-31T12:33:39;7.10;;;3.10;;
8857;SDS011;4465;50.904;4.696;2023-07-31T12:36:12;9.30;;;3.22;;
8857;SDS011;4465;50.904;4.696;2023-07-31T12:38:40;8.75;;;3.20;;
8857;SDS011;4465;50.904;4.696;2023-07-31T12:41:06;6.73;;;3.47;;
8857;SDS011;4465;50.904;4.696;2023-07-31T12:43:35;12.57;;;3.47;;
8857;SDS011;4465;50.904;4.696;2023-07-31T12:46:02;8.52;;;3.63;;
8857;SDS011;4465;50.904;4.696;2023-07-31T12:48:29;8.07;;;3.22;;
8857;SDS011;4465;50.904;4.696;2023-07-31T12:50:57;12.10;;;3.83;;
8857;SDS011;4465;50.904;4.696;2023-07-31T12:53:23;10.82;;;3.10;;
8857;SDS011;4465;50.904;4.696;2023-07-31T12:55:51;9.13;;;3.17;;
8857;SDS011;4465;50.904;4.696;2023-07-31T12:58:17;9.90;;;3.67;;
8857;SDS011;4465;50.904;4.696;2023-07-31T13:00:43;7.15;;;3.22;;
8857;SDS011;4465;50.904;4.696;2023-07-31T13:03:13;8.02;;;3.10;;
8857;SDS011;4465;50.904;4.696;2023-07-31T13:05:39;11.13;;;3.42;;
8857;SDS011;4465;50.904;4.696;2023-07-31T13:08:05;7.45;;;3.20;;
8857;SDS011;4465;50.904;4.696;2023-07-31T13:10:31;12.75;;;3.80;;
8857;SDS011;4465;50.904;4.696;2023-07-31T13:12:57;8.90;;;3.17;;
8857;SDS011;4465;50.904;4.696;2023-07-31T13:15:26;7.88;;;3.70;;
8857;SDS011;4465;50.904;4.696;2023-07-31T13:17:52;8.10;;;3.10;;
8857;SDS011;4465;50.904;4.696;2023-07-31T13:20:21;9.85;;;3.17;;
8857;SDS011;4465;50.904;4.696;2023-07-31T13:22:50;9.50;;;3.35;;
8857;SDS011;4465;50.904;4.696;2023-07-31T13:25:18;11.15;;;3.80;;
8857;SDS011;4465;50.904;4.696;2023-07-31T13:27:46;12.15;;;3.53;;
8857;SDS011;4465;50.904;4.696;2023-07-31T13:30:12;8.15;;;3.45;;
8857;SDS011;4465;50.904;4.696;2023-07-31T13:32:38;8.55;;;3.30;;
8857;SDS011;4465;50.904;4.696;2023-07-31T13:35:07;5.93;;;3.08;;
8857;SDS011;4465;50.904;4.696;2023-07-31T13:37:34;9.27;;;2.83;;
8857;SDS011;4465;50.904;4.696;2023-07-31T13:40:00;6.68;;;3.00;;
8857;SDS011;4465;50.904;4.696;2023-07-31T13:42:30;4.88;;;2.58;;
8857;SDS011;4465;50.904;4.696;2023-07-31T13:44:57;6.43;;;2.73;;
8857;SDS011;4465;50.904;4.696;2023-07-31T13:47:23;5.22;;;2.85;;
8857;SDS011;4465;50.904;4.696;2023-07-31T13:49:48;9.95;;;2.63;;
8857;SDS011;4465;50.904;4.696;2023-07-31T13:52:15;6.35;;;2.58;;
8857;SDS011;4465;50.904;4.696;2023-07-31T13:54:40;5.13;;;2.83;;
8857;SDS011;4465;50.904;4.696;2023-07-31T13:57:08;8.35;;;2.97;;
8857;SDS011;4465;50.904;4.696;2023-07-31T13:59:34;5.50;;;2.63;;
8857;SDS011;4465;50.904;4.696;2023-07-31T14:02:00;6.22;;;2.60;;
8857;SDS011;4465;50.904;4.696;2023-07-31T14:04:27;8.32;;;2.90;;
8857;SDS011;4465;50.904;4.696;2023-07-31T14:06:53;7.47;;;2.58;;
8857;SDS011;4465;50.904;4.696;2023-07-31T14:09:22;6.93;;;2.65;;
8857;SDS011;4465;50.904;4.696;2023-07-31T14:11:50;6.40;;;2.20;;
8857;SDS011;4465;50.904;4.696;2023-07-31T14:14:19;4.05;;;2.30;;
8857;SDS011;4465;50.904;4.696;2023-07-31T14:16:44;6.25;;;2.97;;
8857;SDS011;4465;50.904;4.696;2023-07-31T14:19:10;4.68;;;2.35;;
8857;SDS011;4465;50.904;4.696;2023-07-31T14:21:36;4.13;;;1.98;;
8857;SDS011;4465;50.904;4.696;2023-07-31T14:24:02;7.72;;;2.42;;
8857;SDS011;4465;50.904;4.696;2023-07-31T14:26:28;7.25;;;2.65;;
8857;SDS011;4465;50.904;4.696;2023-07-31T14:28:54;15.15;;;2.42;;
8857;SDS011;4465;50.904;4.696;2023-07-31T14:31:20;7.20;;;2.55;;
8857;SDS011;4465;50.904;4.696;2023-07-31T14:33:51;5.53;;;2.65;;
8857;SDS011;4465;50.904;4.696;2023-07-31T14:36:19;5.22;;;2.53;;
8857;SDS011;4465;50.904;4.696;2023-07-31T14:38:45;5.95;;;2.35;;
8857;SDS011;4465;50.904;4.696;2023-07-31T14:41:13;5.93;;;2.53;;
8857;SDS011;4465;50.904;4.696;2023-07-31T14:43:42;8.75;;;2.70;;
8857;SDS011;4465;50.904;4.696;2023-07-31T14:46:10;4.63;;;2.00;;
8857;SDS011;4465;50.904;4.696;2023-07-31T14:48:36;5.80;;;2.83;;
8857;SDS011;4465;50.904;4.696;2023-07-31T14:51:02;5.65;;;2.35;;
8857;SDS011;4465;50.904;4.696;2023-07-31T14:53:29;5.50;;;2.40;;
8857;SDS011;4465;50.904;4.696;2023-07-31T14:55:55;7.07;;;2.80;;
8857;SDS011;4465;50.904;4.696;2023-07-31T14:58:22;7.18;;;2.47;;
8857;SDS011;4465;50.904;4.696;2023-07-31T15:00:54;6.75;;;2.50;;
8857;SDS011;4465;50.904;4.696;2023-07-31T15:03:20;6.30;;;2.20;;
8857;SDS011;4465;50.904;4.696;2023-07-31T15:05:46;4.10;;;1.95;;
8857;SDS011;4465;50.904;4.696;2023-07-31T15:08:14;4.68;;;1.88;;
8857;SDS011;4465;50.904;4.696;2023-07-31T15:10:40;6.88;;;2.33;;
8857;SDS011;4465;50.904;4.696;2023-07-31T15:13:06;6.22;;;2.42;;
8857;SDS011;4465;50.904;4.696;2023-07-31T15:15:34;5.05;;;2.25;;
8857;SDS011;4465;50.904;4.696;2023-07-31T15:18:00;5.18;;;2.30;;
8857;SDS011;4465;50.904;4.696;2023-07-31T15:20:26;3.92;;;1.90;;
8857;SDS011;4465;50.904;4.696;2023-07-31T15:22:54;4.18;;;2.20;;
8857;SDS011;4465;50.904;4.696;2023-07-31T15:25:20;4.13;;;1.92;;
8857;SDS011;4465;50.904;4.696;2023-07-31T15:27:49;3.83;;;1.98;;
8857;SDS011;4465;50.904;4.696;2023-07-31T15:30:17;4.03;;;2.33;;
8857;SDS011;4465;50.904;4.696;2023-07-31T15:32:45;5.50;;;1.75;;